createdAt,value
2023-03-24T00:00:11.424Z,4.04
2023-03-24T00:02:41.638Z,4.03
2023-03-24T00:05:13.641Z,4.06
2023-03-24T00:07:40.933Z,4.01
2023-03-24T00:10:10.232Z,4.04
2023-03-24T00:12:42.484Z,3.93
2023-03-24T00:15:13.292Z,3.60
2023-03-24T00:17:39.945Z,3.93
2023-03-24T00:20:14.499Z,3.88
2023-03-24T00:22:42.845Z,3.84
2023-03-24T00:25:11.622Z,3.80
2023-03-24T00:27:38.792Z,3.82
2023-03-24T00:30:11.446Z,3.78
2023-03-24T00:32:39.157Z,3.86
2023-03-24T00:35:08.896Z,3.81
2023-03-24T00:37:37.578Z,3.86
2023-03-24T00:40:12.287Z,3.66
2023-03-24T00:42:41.131Z,3.88
2023-03-24T00:45:09.421Z,4.09
2023-03-24T00:47:38.002Z,3.88
2023-03-24T00:50:08.273Z,3.92
2023-03-24T00:52:35.544Z,3.98
2023-03-24T00:55:04.749Z,4.10
2023-03-24T00:57:34.828Z,3.82
2023-03-24T01:00:13.385Z,3.90
2023-03-24T01:02:40.545Z,3.99
2023-03-24T01:05:08.984Z,4.03
2023-03-24T01:07:35.834Z,4.25
2023-03-24T01:10:02.699Z,4.06
2023-03-24T01:12:36.879Z,4.10
2023-03-24T01:15:08.481Z,4.25
2023-03-24T01:17:35.173Z,4.12
2023-03-24T01:20:07.654Z,4.48
2023-03-24T01:22:37.806Z,4.43
2023-03-24T01:25:05.186Z,4.35
2023-03-24T01:27:32.169Z,4.34
2023-03-24T01:30:04.325Z,4.27
2023-03-24T01:32:31.243Z,4.18
2023-03-24T01:34:57.858Z,4.19
2023-03-24T01:37:24.534Z,4.35
2023-03-24T01:39:51.715Z,4.33
2023-03-24T01:42:21.967Z,4.49
2023-03-24T01:44:51.530Z,4.28
2023-03-24T01:47:18.370Z,4.27
2023-03-24T01:49:53.379Z,4.08
2023-03-24T01:52:38.113Z,4.59
2023-03-24T01:55:16.028Z,4.39
2023-03-24T01:57:47.945Z,4.42
2023-03-24T02:00:18.235Z,4.42
2023-03-24T02:02:54.898Z,4.67
2023-03-24T02:05:25.404Z,4.31
2023-03-24T02:08:15.404Z,4.64
2023-03-24T02:10:43.540Z,4.64
2023-03-24T02:13:11.360Z,4.56
2023-03-24T02:15:56.435Z,4.76
2023-03-24T02:18:45.123Z,4.82
2023-03-24T02:21:31.916Z,5.07
2023-03-24T02:24:22.902Z,4.71
2023-03-24T02:27:08.035Z,4.90
2023-03-24T02:29:43.712Z,4.81
2023-03-24T02:32:13.292Z,4.72
2023-03-24T02:35:08.748Z,4.66
2023-03-24T02:38:14.967Z,5.08
2023-03-24T02:40:59.074Z,3.85
2023-03-24T02:43:43.833Z,3.58
2023-03-24T02:46:48.791Z,3.39
2023-03-24T02:49:21.400Z,3.34
2023-03-24T02:52:16.771Z,3.42
2023-03-24T02:55:03.530Z,3.06
2023-03-24T02:57:37.217Z,3.24
2023-03-24T03:00:10.082Z,3.05
2023-03-24T03:02:46.405Z,2.26
2023-03-24T03:05:44.313Z,1.74
2023-03-24T03:08:17.321Z,1.48
2023-03-24T03:10:47.912Z,1.37
2023-03-24T03:13:27.667Z,1.31
2023-03-24T03:15:59.959Z,1.57
2023-03-24T03:18:40.574Z,1.61
2023-03-24T03:21:14.711Z,1.78
2023-03-24T03:24:06.851Z,1.88
2023-03-24T03:26:34.599Z,1.97
2023-03-24T03:29:22.148Z,1.94
2023-03-24T03:32:07.885Z,2.00
2023-03-24T03:34:37.757Z,2.15
2023-03-24T03:37:17.032Z,2.08
2023-03-24T03:39:51.257Z,1.97
2023-03-24T03:42:18.686Z,2.09
2023-03-24T03:44:46.723Z,2.13
2023-03-24T03:47:15.454Z,2.26
2023-03-24T03:49:43.908Z,2.37
2023-03-24T03:52:10.674Z,2.62
2023-03-24T03:54:39.189Z,2.73
2023-03-24T03:57:06.166Z,3.06
2023-03-24T03:59:36.017Z,3.54
2023-03-24T04:02:27.309Z,3.64
2023-03-24T04:05:33.841Z,3.65
2023-03-24T04:08:17.007Z,3.79
2023-03-24T04:11:04.008Z,3.71
2023-03-24T04:13:55.324Z,3.42
2023-03-24T04:16:31.133Z,3.41
2023-03-24T04:19:00.844Z,3.25
2023-03-24T04:21:51.676Z,3.43
2023-03-24T04:24:36.564Z,3.44
2023-03-24T04:27:27.283Z,3.48
2023-03-24T04:30:03.338Z,3.67
2023-03-24T04:32:46.317Z,3.72
2023-03-24T04:35:20.718Z,4.81
2023-03-24T04:37:49.362Z,4.33
2023-03-24T04:40:18.456Z,4.72
2023-03-24T04:42:52.680Z,4.57
2023-03-24T04:45:25.558Z,4.96
2023-03-24T04:48:00.783Z,5.11
2023-03-24T04:50:30.992Z,5.04
2023-03-24T04:52:58.464Z,5.10
2023-03-24T04:55:32.368Z,5.24
2023-03-24T04:57:59.131Z,5.63
2023-03-24T05:00:26.033Z,5.50
2023-03-24T05:02:52.663Z,5.48
2023-03-24T05:05:20.321Z,5.14
2023-03-24T05:07:46.906Z,5.27
2023-03-24T05:10:13.578Z,6.04
2023-03-24T05:12:40.148Z,6.63
2023-03-24T05:15:07.247Z,6.66
2023-03-24T05:17:33.997Z,6.54
2023-03-24T05:20:00.643Z,6.51
2023-03-24T05:22:27.387Z,7.24
2023-03-24T05:24:54.040Z,7.30
2023-03-24T05:27:20.619Z,7.81
2023-03-24T05:29:47.178Z,7.99
2023-03-24T05:32:13.725Z,8.50
2023-03-24T05:34:40.270Z,9.54
2023-03-24T05:37:09.605Z,9.34
2023-03-24T05:39:36.227Z,9.89
2023-03-24T05:42:03.053Z,9.05
2023-03-24T05:44:29.684Z,8.86
2023-03-24T05:46:56.252Z,9.47
2023-03-24T05:49:22.812Z,9.95
2023-03-24T05:51:49.443Z,10.08
2023-03-24T05:54:16.309Z,10.18
2023-03-24T05:56:43.589Z,9.57
2023-03-24T05:59:11.728Z,10.55
2023-03-24T06:01:38.379Z,9.33
2023-03-24T06:04:06.080Z,10.46
2023-03-24T06:06:33.022Z,10.65
2023-03-24T06:09:02.429Z,9.43
2023-03-24T06:11:29.160Z,9.95
2023-03-24T06:14:00.391Z,9.89
2023-03-24T06:16:27.230Z,9.92
2023-03-24T06:18:54.170Z,9.91
2023-03-24T06:21:21.532Z,10.11
2023-03-24T06:23:48.108Z,10.03
2023-03-24T06:26:15.219Z,9.67
2023-03-24T06:28:42.211Z,8.98
2023-03-24T06:31:14.799Z,10.15
2023-03-24T06:33:42.593Z,9.79
2023-03-24T06:36:11.204Z,8.87
2023-03-24T06:38:38.445Z,8.07
2023-03-24T06:41:05.469Z,6.48
2023-03-24T06:43:33.345Z,6.82
2023-03-24T06:46:00.642Z,7.13
2023-03-24T06:48:27.652Z,6.53
2023-03-24T06:50:55.545Z,6.58
2023-03-24T06:53:22.799Z,6.30
2023-03-24T06:55:50.345Z,6.40
2023-03-24T06:58:17.898Z,6.54
2023-03-24T07:00:46.946Z,5.58
2023-03-24T07:03:16.505Z,5.60
2023-03-24T07:05:45.658Z,5.45
2023-03-24T07:10:43.777Z,5.61
2023-03-24T07:13:10.545Z,5.43
2023-03-24T07:15:37.440Z,5.45
2023-03-24T07:18:04.331Z,5.22
2023-03-24T07:20:31.969Z,5.31
2023-03-24T07:22:58.937Z,5.41
2023-03-24T07:25:25.700Z,5.07
2023-03-24T07:27:56.640Z,5.11
2023-03-24T07:30:30.155Z,5.33
2023-03-24T07:33:07.258Z,4.99
2023-03-24T07:35:33.924Z,5.22
2023-03-24T07:38:01.434Z,5.25
2023-03-24T07:40:30.313Z,5.57
2023-03-24T07:43:00.360Z,5.59
2023-03-24T07:45:28.466Z,5.58
2023-03-24T07:47:57.258Z,5.66
2023-03-24T07:50:24.068Z,5.68
2023-03-24T07:52:50.902Z,5.60
2023-03-24T07:55:17.611Z,5.56
2023-03-24T07:57:47.939Z,5.30
2023-03-24T08:00:18.064Z,4.81
2023-03-24T08:02:47.962Z,5.44
2023-03-24T08:05:15.910Z,5.13
2023-03-24T08:07:43.626Z,5.77
2023-03-24T08:10:15.070Z,5.30
2023-03-24T08:12:41.847Z,5.08
2023-03-24T08:15:09.683Z,5.12
2023-03-24T08:17:36.883Z,4.99
2023-03-24T08:20:14.404Z,5.15
2023-03-24T08:22:44.491Z,5.79
2023-03-24T08:25:13.103Z,5.53
2023-03-24T08:27:40.724Z,5.75
2023-03-24T08:30:10.598Z,5.44
2023-03-24T08:32:37.489Z,5.33
2023-03-24T08:35:05.141Z,5.28
2023-03-24T08:37:31.845Z,5.51
2023-03-24T08:39:58.755Z,5.21
2023-03-24T08:42:26.240Z,5.22
2023-03-24T08:44:53.257Z,4.79
2023-03-24T08:47:19.863Z,5.19
2023-03-24T08:49:46.472Z,5.47
2023-03-24T08:52:13.006Z,5.53
2023-03-24T08:54:39.582Z,5.67
2023-03-24T08:57:06.161Z,5.38
2023-03-24T08:59:32.801Z,4.68
2023-03-24T09:01:59.475Z,5.21
2023-03-24T09:04:26.296Z,5.09
2023-03-24T09:06:53.623Z,5.24
2023-03-24T09:09:20.323Z,5.02
2023-03-24T09:11:48.683Z,5.37
2023-03-24T09:14:15.421Z,5.46
2023-03-24T09:16:43.899Z,5.05
2023-03-24T09:19:11.079Z,5.43
2023-03-24T09:21:38.472Z,4.93
2023-03-24T09:24:05.410Z,5.30
2023-03-24T09:26:33.880Z,5.35
2023-03-24T09:29:00.677Z,5.09
2023-03-24T09:31:27.338Z,4.83
2023-03-24T09:33:53.970Z,4.72
2023-03-24T09:36:21.084Z,4.20
2023-03-24T09:38:47.926Z,4.36
2023-03-24T09:41:22.620Z,4.72
2023-03-24T09:43:59.607Z,4.39
2023-03-24T09:46:35.463Z,4.31
2023-03-24T09:49:03.616Z,4.14
2023-03-24T09:51:36.969Z,4.00
2023-03-24T09:54:14.620Z,4.07
2023-03-24T09:56:46.161Z,4.13
2023-03-24T09:59:19.633Z,3.81
2023-03-24T10:01:46.501Z,3.82
2023-03-24T10:04:21.832Z,3.97
2023-03-24T10:06:55.108Z,3.47
2023-03-24T10:09:27.236Z,3.72
2023-03-24T10:12:11.909Z,3.64
2023-03-24T10:14:52.088Z,3.66
2023-03-24T10:17:37.155Z,4.09
2023-03-24T10:20:26.520Z,3.89
2023-03-24T10:23:01.233Z,4.08
2023-03-24T10:25:50.092Z,4.34
2023-03-24T10:28:19.927Z,3.99
2023-03-24T10:30:51.035Z,4.29
2023-03-24T10:33:17.875Z,4.57
2023-03-24T10:36:01.919Z,4.74
2023-03-24T10:38:28.616Z,4.63
2023-03-24T10:40:56.036Z,4.32
2023-03-24T10:43:24.441Z,4.60
2023-03-24T10:45:57.384Z,4.56
2023-03-24T10:48:45.906Z,4.75
2023-03-24T10:51:41.848Z,4.41
2023-03-24T10:54:19.884Z,4.50
2023-03-24T10:57:02.503Z,4.50
2023-03-24T10:59:56.742Z,4.66
2023-03-24T11:02:31.867Z,4.96
2023-03-24T11:05:22.538Z,4.96
2023-03-24T11:07:51.883Z,4.37
2023-03-24T11:10:25.885Z,4.22
2023-03-24T11:12:55.169Z,4.78
2023-03-24T11:15:25.053Z,4.85
2023-03-24T11:18:03.873Z,4.84
2023-03-24T11:20:32.171Z,4.61
2023-03-24T11:23:04.694Z,4.07
2023-03-24T11:25:38.577Z,4.17
2023-03-24T11:28:16.612Z,4.26
2023-03-24T11:30:53.104Z,4.21
2023-03-24T11:33:35.715Z,3.84
2023-03-24T11:36:28.948Z,3.78
2023-03-24T11:39:03.688Z,3.78
2023-03-24T11:41:30.784Z,3.75
2023-03-24T11:44:23.056Z,3.97
2023-03-24T11:46:59.513Z,4.24
2023-03-24T11:49:31.915Z,3.75
2023-03-24T11:51:59.630Z,3.88
2023-03-24T11:54:36.928Z,3.39
2023-03-24T11:57:09.446Z,3.50
2023-03-24T11:59:52.414Z,3.66
2023-03-24T12:02:37.278Z,3.65
2023-03-24T12:05:44.240Z,4.07
2023-03-24T12:08:29.480Z,4.54
2023-03-24T12:11:08.431Z,3.85
2023-03-24T12:13:45.286Z,3.96
2023-03-24T12:16:37.800Z,4.13
2023-03-24T12:19:24.781Z,4.33
2023-03-24T12:22:12.566Z,3.92
2023-03-24T12:24:46.739Z,4.09
2023-03-24T12:27:54.354Z,4.15
2023-03-24T12:30:35.949Z,4.17
2023-03-24T12:33:21.673Z,3.65
2023-03-24T12:35:51.301Z,3.85
2023-03-24T12:38:42.437Z,3.96
2023-03-24T12:41:17.828Z,3.84
2023-03-24T12:43:55.250Z,3.88
2023-03-24T12:46:47.781Z,3.66
2023-03-24T12:49:36.653Z,3.86
2023-03-24T12:52:20.833Z,3.99
2023-03-24T12:54:56.436Z,4.14
2023-03-24T12:57:30.950Z,3.54
2023-03-24T13:00:08.458Z,3.31
2023-03-24T13:02:41.202Z,3.19
2023-03-24T13:05:17.506Z,3.20
2023-03-24T13:07:47.540Z,3.28
2023-03-24T13:10:23.273Z,3.25
2023-03-24T13:12:59.480Z,3.20
2023-03-24T13:15:34.508Z,2.84
2023-03-24T13:18:32.138Z,3.21
2023-03-24T13:21:26.494Z,3.55
2023-03-24T13:23:56.631Z,3.69
2023-03-24T13:26:39.812Z,3.48
2023-03-24T13:29:48.553Z,3.65
2023-03-24T13:32:30.828Z,3.61
2023-03-24T13:35:15.758Z,3.87
2023-03-24T13:37:52.467Z,3.89
2023-03-24T13:40:25.445Z,4.07
2023-03-24T13:42:58.459Z,4.46
2023-03-24T13:45:41.940Z,4.30
2023-03-24T13:48:32.948Z,3.95
2023-03-24T13:51:24.380Z,4.03
2023-03-24T13:53:59.690Z,4.24
2023-03-24T13:56:36.346Z,4.06
2023-03-24T13:59:03.151Z,3.99
2023-03-24T14:01:37.057Z,4.01
2023-03-24T14:04:19.207Z,3.70
2023-03-24T14:06:51.369Z,3.01
2023-03-24T14:09:25.373Z,2.41
2023-03-24T14:11:54.948Z,2.59
2023-03-24T14:14:24.484Z,2.94
2023-03-24T14:17:06.222Z,2.51
2023-03-24T14:19:41.789Z,2.62
2023-03-24T14:22:15.738Z,2.55
2023-03-24T14:24:58.788Z,2.37
2023-03-24T14:27:35.099Z,2.48
2023-03-24T14:30:11.050Z,2.05
2023-03-24T14:32:43.773Z,2.48
2023-03-24T14:35:37.011Z,2.69
2023-03-24T14:38:24.902Z,2.47
2023-03-24T14:41:05.219Z,2.53
2023-03-24T14:43:41.473Z,2.71
2023-03-24T14:46:20.326Z,2.53
2023-03-24T14:49:03.746Z,2.79
2023-03-24T14:51:43.333Z,2.64
2023-03-24T14:54:17.586Z,2.31
2023-03-24T14:56:51.920Z,2.64
2023-03-24T15:00:01.128Z,3.02
2023-03-24T15:02:33.120Z,3.05
2023-03-24T15:05:15.488Z,3.05
2023-03-24T15:07:44.610Z,2.91
2023-03-24T15:10:15.998Z,2.49
2023-03-24T15:12:49.907Z,3.00
2023-03-24T15:15:16.668Z,2.59
2023-03-24T15:17:44.679Z,2.93
2023-03-24T15:20:33.295Z,3.23
2023-03-24T15:23:19.199Z,2.95
2023-03-24T15:25:47.764Z,3.22
2023-03-24T15:28:26.711Z,2.94
2023-03-24T15:30:56.079Z,3.05
2023-03-24T15:33:23.582Z,3.04
2023-03-24T15:35:57.049Z,3.43
2023-03-24T15:38:33.590Z,3.52
2023-03-24T15:41:05.675Z,3.77
2023-03-24T15:43:32.343Z,3.76
2023-03-24T15:46:11.826Z,3.63
2023-03-24T15:48:39.492Z,3.59
2023-03-24T15:51:09.723Z,3.59
2023-03-24T15:53:54.945Z,3.10
2023-03-24T15:56:24.304Z,3.53
2023-03-24T15:58:59.369Z,3.36
2023-03-24T16:01:36.210Z,3.29
2023-03-24T16:04:13.249Z,4.13
2023-03-24T16:06:48.346Z,3.83
2023-03-24T16:09:21.737Z,4.14
2023-03-24T16:11:49.507Z,3.45
2023-03-24T16:14:21.761Z,3.57
2023-03-24T16:16:52.604Z,4.29
2023-03-24T16:19:19.174Z,4.00
2023-03-24T16:21:45.950Z,4.28
2023-03-24T16:24:12.548Z,4.21
2023-03-24T16:26:39.261Z,3.83
2023-03-24T16:29:21.530Z,4.09
2023-03-24T16:31:51.230Z,4.49
2023-03-24T16:34:20.684Z,4.54
2023-03-24T16:36:48.902Z,4.20
2023-03-24T16:39:19.643Z,4.67
2023-03-24T16:41:47.049Z,4.96
2023-03-24T16:44:14.513Z,5.16
2023-03-24T16:46:41.856Z,4.84
2023-03-24T16:49:14.624Z,4.75
2023-03-24T16:51:41.927Z,4.75
2023-03-24T16:54:09.203Z,4.71
2023-03-24T16:56:37.606Z,3.74
2023-03-24T16:59:05.649Z,3.92
2023-03-24T17:01:41.126Z,3.52
2023-03-24T17:04:19.681Z,3.63
2023-03-24T17:06:52.817Z,3.55
2023-03-24T17:09:20.901Z,3.63
2023-03-24T17:11:56.920Z,4.08
2023-03-24T17:14:23.519Z,3.35
2023-03-24T17:16:52.670Z,3.32
2023-03-24T17:19:21.867Z,3.10
2023-03-24T17:22:06.836Z,3.19
2023-03-24T17:24:35.981Z,5.33
2023-03-24T17:27:04.429Z,23.26
2023-03-24T17:29:31.692Z,45.97
2023-03-24T17:31:58.326Z,16.17
2023-03-24T17:34:24.933Z,12.44
2023-03-24T17:36:51.918Z,13.43
2023-03-24T17:39:19.913Z,14.47
2023-03-24T17:41:46.489Z,11.59
2023-03-24T17:44:13.488Z,8.21
2023-03-24T17:46:40.483Z,6.15
2023-03-24T17:49:07.488Z,5.58
2023-03-24T17:51:34.125Z,14.83
2023-03-24T17:54:00.809Z,6.30
2023-03-24T17:56:27.457Z,12.29
2023-03-24T17:58:54.936Z,6.68
2023-03-24T18:01:23.625Z,11.42
2023-03-24T18:03:50.582Z,6.12
2023-03-24T18:06:17.251Z,5.38
2023-03-24T18:08:44.007Z,6.28
2023-03-24T18:11:14.485Z,6.44
2023-03-24T18:13:42.797Z,6.53
2023-03-24T18:16:20.692Z,6.53
2023-03-24T18:18:50.213Z,8.56
2023-03-24T18:21:18.539Z,8.17
2023-03-24T18:23:46.514Z,10.87
2023-03-24T18:26:14.402Z,6.33
2023-03-24T18:28:42.149Z,6.63
2023-03-24T18:31:18.831Z,6.51
2023-03-24T18:33:46.839Z,5.91
2023-03-24T18:36:21.546Z,4.46
2023-03-24T18:38:48.929Z,5.29
2023-03-24T18:41:18.068Z,5.37
2023-03-24T18:43:47.560Z,6.11
2023-03-24T18:46:14.898Z,7.71
2023-03-24T18:48:43.256Z,6.36
2023-03-24T18:51:11.283Z,7.38
2023-03-24T18:53:38.222Z,7.27
2023-03-24T18:56:06.001Z,6.84
2023-03-24T18:58:33.770Z,4.73
2023-03-24T19:01:07.215Z,4.47
2023-03-24T19:03:35.700Z,4.78
2023-03-24T19:06:06.937Z,6.71
2023-03-24T19:08:35.908Z,6.29
2023-03-24T19:11:02.596Z,5.67
2023-03-24T19:13:29.545Z,6.24
2023-03-24T19:15:56.603Z,6.71
2023-03-24T19:18:23.837Z,6.62
2023-03-24T19:20:54.512Z,6.40
2023-03-24T19:23:21.328Z,6.85
2023-03-24T19:25:48.847Z,5.24
2023-03-24T19:28:16.456Z,4.23
2023-03-24T19:30:43.289Z,3.61
2023-03-24T19:33:11.263Z,3.67
2023-03-24T19:35:39.502Z,4.03
2023-03-24T19:38:06.167Z,3.91
2023-03-24T19:40:32.886Z,4.32
2023-03-24T19:42:59.461Z,3.88
2023-03-24T19:45:26.056Z,3.27
2023-03-24T19:47:52.713Z,3.06
2023-03-24T19:50:19.398Z,2.63
2023-03-24T19:52:46.161Z,2.86
2023-03-24T19:55:13.695Z,3.38
2023-03-24T19:57:41.041Z,3.21
2023-03-24T20:00:14.302Z,3.02
2023-03-24T20:02:41.754Z,2.95
2023-03-24T20:05:09.313Z,3.13
2023-03-24T20:07:36.145Z,3.21
2023-03-24T20:10:03.070Z,3.70
2023-03-24T20:12:29.739Z,3.85
2023-03-24T20:14:57.161Z,4.29
2023-03-24T20:17:29.470Z,3.49
2023-03-24T20:19:56.476Z,3.32
2023-03-24T20:22:23.164Z,3.22
2023-03-24T20:24:50.226Z,3.78
2023-03-24T20:27:16.944Z,3.93
2023-03-24T20:29:45.716Z,3.86
2023-03-24T20:32:12.807Z,3.37
2023-03-24T20:34:39.445Z,3.15
2023-03-24T20:37:06.903Z,3.27
2023-03-24T20:39:33.827Z,4.01
2023-03-24T20:42:00.947Z,3.11
2023-03-24T20:44:27.914Z,3.03
2023-03-24T20:46:57.136Z,2.92
2023-03-24T20:49:25.910Z,3.18
2023-03-24T20:51:52.726Z,3.80
2023-03-24T20:54:19.533Z,2.86
2023-03-24T20:56:46.819Z,3.00
2023-03-24T20:59:13.808Z,3.92
2023-03-24T21:01:41.985Z,2.67
2023-03-24T21:04:10.075Z,2.95
2023-03-24T21:06:40.499Z,3.55
2023-03-24T21:09:07.209Z,2.78
2023-03-24T21:11:34.144Z,2.72
2023-03-24T21:14:02.626Z,2.86
2023-03-24T21:16:33.608Z,2.56
2023-03-24T21:19:03.640Z,2.82
2023-03-24T21:21:32.184Z,3.44
2023-03-24T21:24:00.327Z,3.55
2023-03-24T21:26:27.234Z,3.68
2023-03-24T21:28:53.898Z,3.27
2023-03-24T21:31:26.496Z,3.31
2023-03-24T21:33:54.901Z,3.49
2023-03-24T21:36:23.073Z,4.17
2023-03-24T21:38:51.796Z,3.56
2023-03-24T21:41:19.975Z,4.08
2023-03-24T21:43:50.965Z,4.34
2023-03-24T21:46:21.926Z,4.16
2023-03-24T21:48:51.443Z,4.91
2023-03-24T21:51:26.254Z,4.42
2023-03-24T21:53:59.276Z,4.96
2023-03-24T21:56:26.087Z,4.66
2023-03-24T21:58:54.511Z,4.70
2023-03-24T22:01:21.804Z,4.78
2023-03-24T22:03:48.794Z,5.37
2023-03-24T22:06:15.490Z,5.58
2023-03-24T22:08:43.590Z,6.03
2023-03-24T22:11:11.157Z,5.75
2023-03-24T22:13:39.341Z,5.00
2023-03-24T22:16:06.958Z,5.25
2023-03-24T22:18:34.743Z,5.06
2023-03-24T22:21:11.106Z,5.53
2023-03-24T22:23:40.516Z,5.35
2023-03-24T22:26:13.882Z,4.66
2023-03-24T22:28:42.349Z,5.00
2023-03-24T22:31:13.091Z,4.63
2023-03-24T22:33:39.777Z,5.30
2023-03-24T22:36:07.652Z,4.61
2023-03-24T22:38:34.913Z,4.37
2023-03-24T22:41:05.384Z,4.49
2023-03-24T22:43:32.339Z,4.67
2023-03-24T22:45:59.195Z,4.87
2023-03-24T22:48:25.990Z,4.28
2023-03-24T22:50:53.671Z,4.39
2023-03-24T22:53:20.470Z,4.48
2023-03-24T22:55:47.221Z,4.60
2023-03-24T22:58:14.040Z,3.89
2023-03-24T23:00:42.774Z,3.65
2023-03-24T23:03:10.703Z,3.81
2023-03-24T23:05:41.701Z,3.43
2023-03-24T23:08:09.532Z,3.50
2023-03-24T23:10:37.378Z,3.27
2023-03-24T23:13:04.327Z,3.16
2023-03-24T23:15:31.984Z,3.21
2023-03-24T23:17:59.191Z,4.01
2023-03-24T23:20:28.085Z,3.87
2023-03-24T23:22:54.872Z,3.76
2023-03-24T23:25:21.690Z,4.11
2023-03-24T23:27:48.488Z,4.31
2023-03-24T23:30:16.287Z,4.66
2023-03-24T23:32:44.054Z,4.89
2023-03-24T23:35:11.343Z,4.47
2023-03-24T23:37:39.564Z,4.90
2023-03-24T23:40:12.518Z,5.11
2023-03-24T23:42:46.339Z,5.04
2023-03-24T23:45:18.067Z,5.46
2023-03-24T23:47:49.939Z,5.93
2023-03-24T23:50:19.080Z,6.08
2023-03-24T23:52:46.039Z,5.23
2023-03-24T23:55:14.540Z,5.56
2023-03-24T23:57:42.392Z,5.16
